sensor_id;sensor_type;location;lat;lon;timestamp;pressure;altitude;pressure_sealevel;temperature
69785;BMP280;14177;51.520;6.764;2023-11-22T00:02:18;102440.84;;;6.32
69785;BMP280;14177;51.520;6.764;2023-11-22T00:04:45;102430.50;;;6.32
69785;BMP280;14177;51.520;6.764;2023-11-22T00:07:12;102440.84;;;6.32
69785;BMP280;14177;51.520;6.764;2023-11-22T00:09:39;102437.38;;;6.30
69785;BMP280;14177;51.520;6.764;2023-11-22T00:12:09;102427.84;;;6.28
69785;BMP280;14177;51.520;6.764;2023-11-22T00:14:36;102432.16;;;6.27
69785;BMP280;14177;51.520;6.764;2023-11-22T00:17:03;102432.97;;;6.23
69785;BMP280;14177;51.520;6.764;2023-11-22T00:19:31;102437.22;;;6.20
69785;BMP280;14177;51.520;6.764;2023-11-22T00:21:59;102439.78;;;6.18
69785;BMP280;14177;51.520;6.764;2023-11-22T00:24:26;102445.78;;;6.17
69785;BMP280;14177;51.520;6.764;2023-11-22T00:26:53;102444.03;;;6.13
69785;BMP280;14177;51.520;6.764;2023-11-22T00:29:19;102440.56;;;6.11
69785;BMP280;14177;51.520;6.764;2023-11-22T00:31:46;102437.03;;;6.06
69785;BMP280;14177;51.520;6.764;2023-11-22T00:34:13;102435.28;;;6.02
69785;BMP280;14177;51.520;6.764;2023-11-22T00:36:43;102436.06;;;5.97
69785;BMP280;14177;51.520;6.764;2023-11-22T00:39:11;102434.25;;;5.90
69785;BMP280;14177;51.520;6.764;2023-11-22T00:41:40;102447.91;;;5.85
69785;BMP280;14177;51.520;6.764;2023-11-22T00:44:07;102455.59;;;5.79
69785;BMP280;14177;51.520;6.764;2023-11-22T00:46:34;102455.47;;;5.73
69785;BMP280;14177;51.520;6.764;2023-11-22T00:49:01;102460.53;;;5.67
69785;BMP280;14177;51.520;6.764;2023-11-22T00:51:29;102464.75;;;5.62
69785;BMP280;14177;51.520;6.764;2023-11-22T00:53:58;102464.66;;;5.56
69785;BMP280;14177;51.520;6.764;2023-11-22T00:56:26;102460.28;;;5.52
69785;BMP280;14177;51.520;6.764;2023-11-22T00:58:54;102461.94;;;5.47
69785;BMP280;14177;51.520;6.764;2023-11-22T01:01:22;102457.56;;;5.41
69785;BMP280;14177;51.520;6.764;2023-11-22T01:03:49;102461.72;;;5.35
69785;BMP280;14177;51.520;6.764;2023-11-22T01:06:16;102467.66;;;5.31
69785;BMP280;14177;51.520;6.764;2023-11-22T01:08:44;102472.72;;;5.23
69785;BMP280;14177;51.520;6.764;2023-11-22T01:11:11;102481.19;;;5.18
69785;BMP280;14177;51.520;6.764;2023-11-22T01:13:38;102480.22;;;5.11
69785;BMP280;14177;51.520;6.764;2023-11-22T01:16:10;102480.09;;;5.04
69785;BMP280;14177;51.520;6.764;2023-11-22T01:18:37;102486.88;;;4.99
69785;BMP280;14177;51.520;6.764;2023-11-22T01:21:06;102498.81;;;4.94
69785;BMP280;14177;51.520;6.764;2023-11-22T01:23:34;102496.09;;;4.88
69785;BMP280;14177;51.520;6.764;2023-11-22T01:26:01;102505.44;;;4.83
69785;BMP280;14177;51.520;6.764;2023-11-22T01:28:29;102508.81;;;4.79
69785;BMP280;14177;51.520;6.764;2023-11-22T01:31:01;102505.28;;;4.74
69785;BMP280;14177;51.520;6.764;2023-11-22T01:33:30;102504.28;;;4.68
69785;BMP280;14177;51.520;6.764;2023-11-22T01:35:59;102517.91;;;4.62
69785;BMP280;14177;51.520;6.764;2023-11-22T01:38:26;102529.84;;;4.59
69785;BMP280;14177;51.520;6.764;2023-11-22T01:40:53;102535.66;;;4.50
69785;BMP280;14177;51.520;6.764;2023-11-22T01:43:20;102536.44;;;4.46
69785;BMP280;14177;51.520;6.764;2023-11-22T01:45:51;102539.75;;;4.41
69785;BMP280;14177;51.520;6.764;2023-11-22T01:48:18;102538.81;;;4.37
69785;BMP280;14177;51.520;6.764;2023-11-22T01:50:45;102553.38;;;4.35
69785;BMP280;14177;51.520;6.764;2023-11-22T01:53:14;102549.84;;;4.32
69785;BMP280;14177;51.520;6.764;2023-11-22T01:55:44;102555.81;;;4.29
69785;BMP280;14177;51.520;6.764;2023-11-22T01:58:12;102556.66;;;4.28
69785;BMP280;14177;51.520;6.764;2023-11-22T02:00:50;102563.41;;;4.25
69785;BMP280;14177;51.520;6.764;2023-11-22T02:03:17;102567.72;;;4.24
69785;BMP280;14177;51.520;6.764;2023-11-22T02:05:45;102571.91;;;4.21
69785;BMP280;14177;51.520;6.764;2023-11-22T02:08:13;102575.34;;;4.21
69785;BMP280;14177;51.520;6.764;2023-11-22T02:10:40;102583.78;;;4.16
69785;BMP280;14177;51.520;6.764;2023-11-22T02:13:08;102587.19;;;4.15
69785;BMP280;14177;51.520;6.764;2023-11-22T02:15:36;102572.56;;;4.12
69785;BMP280;14177;51.520;6.764;2023-11-22T02:18:04;102563.94;;;4.10
69785;BMP280;14177;51.520;6.764;2023-11-22T02:20:39;102563.03;;;4.08
69785;BMP280;14177;51.520;6.764;2023-11-22T02:23:10;102555.25;;;4.05
69785;BMP280;14177;51.520;6.764;2023-11-22T02:25:38;102556.91;;;4.03
69785;BMP280;14177;51.520;6.764;2023-11-22T02:28:05;102556.00;;;4.00
69785;BMP280;14177;51.520;6.764;2023-11-22T02:30:35;102552.47;;;3.96
69785;BMP280;14177;51.520;6.764;2023-11-22T02:33:04;102548.09;;;3.92
69785;BMP280;14177;51.520;6.764;2023-11-22T02:35:33;102567.75;;;3.90
69785;BMP280;14177;51.520;6.764;2023-11-22T02:38:00;102560.00;;;3.89
69785;BMP280;14177;51.520;6.764;2023-11-22T02:40:27;102565.03;;;3.84
69785;BMP280;14177;51.520;6.764;2023-11-22T02:42:57;102556.34;;;3.79
69785;BMP280;14177;51.520;6.764;2023-11-22T02:45:28;102559.75;;;3.78
69785;BMP280;14177;51.520;6.764;2023-11-22T02:47:56;102563.94;;;3.75
69785;BMP280;14177;51.520;6.764;2023-11-22T02:50:23;102560.47;;;3.73
69785;BMP280;14177;51.520;6.764;2023-11-22T02:52:50;102566.38;;;3.70
69785;BMP280;14177;51.520;6.764;2023-11-22T02:55:17;102581.75;;;3.67
69785;BMP280;14177;51.520;6.764;2023-11-22T02:57:44;102581.63;;;3.63
69785;BMP280;14177;51.520;6.764;2023-11-22T03:00:12;102585.88;;;3.61
69785;BMP280;14177;51.520;6.764;2023-11-22T03:02:42;102597.81;;;3.59
69785;BMP280;14177;51.520;6.764;2023-11-22T03:05:10;102603.75;;;3.57
69785;BMP280;14177;51.520;6.764;2023-11-22T03:07:39;102605.44;;;3.55
69785;BMP280;14177;51.520;6.764;2023-11-22T03:10:08;102607.91;;;3.52
69785;BMP280;14177;51.520;6.764;2023-11-22T03:12:55;102607.84;;;3.49
69785;BMP280;14177;51.520;6.764;2023-11-22T03:15:22;102615.47;;;3.46
69785;BMP280;14177;51.520;6.764;2023-11-22T03:17:49;102612.81;;;3.43
69785;BMP280;14177;51.520;6.764;2023-11-22T03:20:16;102628.16;;;3.41
69785;BMP280;14177;51.520;6.764;2023-11-22T03:22:43;102623.84;;;3.39
69785;BMP280;14177;51.520;6.764;2023-11-22T03:25:11;102618.59;;;3.36
69785;BMP280;14177;51.520;6.764;2023-11-22T03:27:39;102616.88;;;3.35
69785;BMP280;14177;51.520;6.764;2023-11-22T03:30:07;102618.59;;;3.36
69785;BMP280;14177;51.520;6.764;2023-11-22T03:32:40;102621.19;;;3.36
69785;BMP280;14177;51.520;6.764;2023-11-22T03:35:08;102625.41;;;3.34
69785;BMP280;14177;51.520;6.764;2023-11-22T03:37:36;102622.78;;;3.32
69785;BMP280;14177;51.520;6.764;2023-11-22T03:40:05;102620.19;;;3.31
69785;BMP280;14177;51.520;6.764;2023-11-22T03:42:32;102613.22;;;3.27
69785;BMP280;14177;51.520;6.764;2023-11-22T03:44:59;102626.81;;;3.23
69785;BMP280;14177;51.520;6.764;2023-11-22T03:47:26;102636.16;;;3.19
69785;BMP280;14177;51.520;6.764;2023-11-22T03:49:54;102633.44;;;3.15
69785;BMP280;14177;51.520;6.764;2023-11-22T03:52:21;102629.94;;;3.13
69785;BMP280;14177;51.520;6.764;2023-11-22T03:54:47;102622.13;;;3.08
69785;BMP280;14177;51.520;6.764;2023-11-22T03:57:14;102626.28;;;3.05
69785;BMP280;14177;51.520;6.764;2023-11-22T03:59:42;102645.00;;;3.01
69785;BMP280;14177;51.520;6.764;2023-11-22T04:02:10;102652.59;;;2.96
69785;BMP280;14177;51.520;6.764;2023-11-22T04:04:37;102658.50;;;2.94
69785;BMP280;14177;51.520;6.764;2023-11-22T04:07:07;102660.13;;;2.90
69785;BMP280;14177;51.520;6.764;2023-11-22T04:09:34;102660.00;;;2.86
69785;BMP280;14177;51.520;6.764;2023-11-22T04:12:01;102670.22;;;2.84
69785;BMP280;14177;51.520;6.764;2023-11-22T04:14:28;102671.03;;;2.83
69785;BMP280;14177;51.520;6.764;2023-11-22T04:16:56;102680.34;;;2.80
69785;BMP280;14177;51.520;6.764;2023-11-22T04:19:24;102694.00;;;2.79
69785;BMP280;14177;51.520;6.764;2023-11-22T04:21:51;102700.81;;;2.78
69785;BMP280;14177;51.520;6.764;2023-11-22T04:24:18;102692.28;;;2.78
69785;BMP280;14177;51.520;6.764;2023-11-22T04:26:45;102692.19;;;2.75
69785;BMP280;14177;51.520;6.764;2023-11-22T04:29:14;102692.19;;;2.75
69785;BMP280;14177;51.520;6.764;2023-11-22T04:31:43;102693.00;;;2.74
69785;BMP280;14177;51.520;6.764;2023-11-22T04:34:10;102691.25;;;2.73
69785;BMP280;14177;51.520;6.764;2023-11-22T04:36:37;102697.22;;;2.72
69785;BMP280;14177;51.520;6.764;2023-11-22T04:39:06;102691.16;;;2.70
69785;BMP280;14177;51.520;6.764;2023-11-22T04:41:34;102692.84;;;2.69
69785;BMP280;14177;51.520;6.764;2023-11-22T04:44:01;102697.13;;;2.69
69785;BMP280;14177;51.520;6.764;2023-11-22T04:46:29;102697.94;;;2.68
69785;BMP280;14177;51.520;6.764;2023-11-22T04:48:57;102697.94;;;2.68
69785;BMP280;14177;51.520;6.764;2023-11-22T04:51:24;102693.63;;;2.67
69785;BMP280;14177;51.520;6.764;2023-11-22T04:53:51;102701.34;;;2.67
69785;BMP280;14177;51.520;6.764;2023-11-22T04:56:18;102705.56;;;2.65
69785;BMP280;14177;51.520;6.764;2023-11-22T04:58:45;102709.78;;;2.64
69785;BMP280;14177;51.520;6.764;2023-11-22T05:01:12;102706.31;;;2.62
69785;BMP280;14177;51.520;6.764;2023-11-22T05:03:41;102709.66;;;2.60
69785;BMP280;14177;51.520;6.764;2023-11-22T05:06:08;102701.88;;;2.57
69785;BMP280;14177;51.520;6.764;2023-11-22T05:08:35;102706.09;;;2.55
69785;BMP280;14177;51.520;6.764;2023-11-22T05:11:02;102704.25;;;2.51
69785;BMP280;14177;51.520;6.764;2023-11-22T05:13:30;102706.72;;;2.48
69785;BMP280;14177;51.520;6.764;2023-11-22T05:15:57;102723.75;;;2.46
69785;BMP280;14177;51.520;6.764;2023-11-22T05:18:24;102719.41;;;2.43
69785;BMP280;14177;51.520;6.764;2023-11-22T05:20:52;102722.72;;;2.41
69785;BMP280;14177;51.520;6.764;2023-11-22T05:23:19;102724.38;;;2.39
69785;BMP280;14177;51.520;6.764;2023-11-22T05:25:46;102726.84;;;2.36
69785;BMP280;14177;51.520;6.764;2023-11-22T05:28:13;102731.88;;;2.33
69785;BMP280;14177;51.520;6.764;2023-11-22T05:30:39;102733.50;;;2.31
69785;BMP280;14177;51.520;6.764;2023-11-22T05:33:07;102739.44;;;2.29
69785;BMP280;14177;51.520;6.764;2023-11-22T05:35:34;102740.25;;;2.28
69785;BMP280;14177;51.520;6.764;2023-11-22T05:38:01;102740.09;;;2.23
69785;BMP280;14177;51.520;6.764;2023-11-22T05:40:29;102736.59;;;2.21
69785;BMP280;14177;51.520;6.764;2023-11-22T05:42:56;102739.91;;;2.17
69785;BMP280;14177;51.520;6.764;2023-11-22T05:45:23;102738.16;;;2.16
69785;BMP280;14177;51.520;6.764;2023-11-22T05:47:51;102739.75;;;2.13
69785;BMP280;14177;51.520;6.764;2023-11-22T05:50:18;102738.81;;;2.11
69785;BMP280;14177;51.520;6.764;2023-11-22T05:52:45;102737.84;;;2.07
69785;BMP280;14177;51.520;6.764;2023-11-22T05:55:12;102742.88;;;2.04
69785;BMP280;14177;51.520;6.764;2023-11-22T05:57:41;102745.34;;;2.01
69785;BMP280;14177;51.520;6.764;2023-11-22T06:00:09;102737.53;;;1.98
69785;BMP280;14177;51.520;6.764;2023-11-22T06:02:36;102751.06;;;1.94
69785;BMP280;14177;51.520;6.764;2023-11-22T06:05:06;102747.47;;;1.89
69785;BMP280;14177;51.520;6.764;2023-11-22T06:07:34;102744.72;;;1.85
69785;BMP280;14177;51.520;6.764;2023-11-22T06:10:01;102745.50;;;1.82
69785;BMP280;14177;51.520;6.764;2023-11-22T06:12:29;102737.72;;;1.79
69785;BMP280;14177;51.520;6.764;2023-11-22T06:14:56;102740.16;;;1.76
69785;BMP280;14177;51.520;6.764;2023-11-22T06:17:23;102758.81;;;1.72
69785;BMP280;14177;51.520;6.764;2023-11-22T06:19:50;102764.66;;;1.68
69785;BMP280;14177;51.520;6.764;2023-11-22T06:22:17;102762.81;;;1.64
69785;BMP280;14177;51.520;6.764;2023-11-22T06:24:46;102755.81;;;1.60
69785;BMP280;14177;51.520;6.764;2023-11-22T06:27:14;102755.66;;;1.56
69785;BMP280;14177;51.520;6.764;2023-11-22T06:29:44;102763.25;;;1.53
69785;BMP280;14177;51.520;6.764;2023-11-22T06:32:11;102772.56;;;1.51
69785;BMP280;14177;51.520;6.764;2023-11-22T06:34:38;102781.81;;;1.47
69785;BMP280;14177;51.520;6.764;2023-11-22T06:37:06;102790.22;;;1.43
69785;BMP280;14177;51.520;6.764;2023-11-22T06:39:35;102780.59;;;1.38
69785;BMP280;14177;51.520;6.764;2023-11-22T06:42:02;102783.13;;;1.36
69785;BMP280;14177;51.520;6.764;2023-11-22T06:44:29;102782.13;;;1.33
69785;BMP280;14177;51.520;6.764;2023-11-22T06:46:56;102788.03;;;1.30
69785;BMP280;14177;51.520;6.764;2023-11-22T06:49:23;102782.78;;;1.27
69785;BMP280;14177;51.520;6.764;2023-11-22T06:51:50;102789.44;;;1.24
69785;BMP280;14177;51.520;6.764;2023-11-22T06:54:19;102782.53;;;1.21
69785;BMP280;14177;51.520;6.764;2023-11-22T06:56:47;102776.50;;;1.19
69785;BMP280;14177;51.520;6.764;2023-11-22T06:59:14;102785.81;;;1.17
69785;BMP280;14177;51.520;6.764;2023-11-22T07:01:41;102795.97;;;1.16
69785;BMP280;14177;51.520;6.764;2023-11-22T07:04:09;102803.53;;;1.13
69785;BMP280;14177;51.520;6.764;2023-11-22T07:06:37;102814.53;;;1.11
69785;BMP280;14177;51.520;6.764;2023-11-22T07:09:05;102823.03;;;1.10
69785;BMP280;14177;51.520;6.764;2023-11-22T07:11:32;102823.84;;;1.09
69785;BMP280;14177;51.520;6.764;2023-11-22T07:13:59;102827.31;;;1.09
69785;BMP280;14177;51.520;6.764;2023-11-22T07:16:26;102828.16;;;1.10
69785;BMP280;14177;51.520;6.764;2023-11-22T07:18:53;102825.59;;;1.10
69785;BMP280;14177;51.520;6.764;2023-11-22T07:21:20;102837.59;;;1.11
69785;BMP280;14177;51.520;6.764;2023-11-22T07:23:48;102842.75;;;1.12
69785;BMP280;14177;51.520;6.764;2023-11-22T07:26:18;102852.25;;;1.15
69785;BMP280;14177;51.520;6.764;2023-11-22T07:28:46;102842.88;;;1.15
69785;BMP280;14177;51.520;6.764;2023-11-22T07:31:13;102840.44;;;1.18
69785;BMP280;14177;51.520;6.764;2023-11-22T07:33:41;102840.63;;;1.22
69785;BMP280;14177;51.520;6.764;2023-11-22T07:36:09;102834.00;;;1.27
69785;BMP280;14177;51.520;6.764;2023-11-22T07:38:36;102827.28;;;1.31
69785;BMP280;14177;51.520;6.764;2023-11-22T07:41:05;102833.34;;;1.33
69785;BMP280;14177;51.520;6.764;2023-11-22T07:43:34;102841.09;;;1.34
69785;BMP280;14177;51.520;6.764;2023-11-22T07:46:07;102842.84;;;1.35
69785;BMP280;14177;51.520;6.764;2023-11-22T07:48:42;102829.22;;;1.36
69785;BMP280;14177;51.520;6.764;2023-11-22T07:51:09;102825.09;;;1.40
69785;BMP280;14177;51.520;6.764;2023-11-22T07:53:36;102805.63;;;1.45
69785;BMP280;14177;51.520;6.764;2023-11-22T07:56:04;102800.66;;;1.49
69785;BMP280;14177;51.520;6.764;2023-11-22T07:58:31;102799.03;;;1.51
69785;BMP280;14177;51.520;6.764;2023-11-22T08:00:59;102792.28;;;1.53
69785;BMP280;14177;51.520;6.764;2023-11-22T08:03:26;102784.72;;;1.56
69785;BMP280;14177;51.520;6.764;2023-11-22T08:05:53;102784.00;;;1.60
69785;BMP280;14177;51.520;6.764;2023-11-22T08:08:23;102792.72;;;1.65
69785;BMP280;14177;51.520;6.764;2023-11-22T08:10:50;102795.47;;;1.70
69785;BMP280;14177;51.520;6.764;2023-11-22T08:13:20;102807.63;;;1.75
69785;BMP280;14177;51.520;6.764;2023-11-22T08:15:49;102811.31;;;1.82
69785;BMP280;14177;51.520;6.764;2023-11-22T08:18:17;102809.00;;;1.89
69785;BMP280;14177;51.520;6.764;2023-11-22T08:20:44;102808.41;;;1.96
69785;BMP280;14177;51.520;6.764;2023-11-22T08:23:11;102808.56;;;2.01
69785;BMP280;14177;51.520;6.764;2023-11-22T08:25:40;102816.47;;;2.07
69785;BMP280;14177;51.520;6.764;2023-11-22T08:28:10;102824.44;;;2.14
69785;BMP280;14177;51.520;6.764;2023-11-22T08:30:37;102828.94;;;2.21
69785;BMP280;14177;51.520;6.764;2023-11-22T08:33:04;102842.03;;;2.29
69785;BMP280;14177;51.520;6.764;2023-11-22T08:35:31;102844.84;;;2.36
69785;BMP280;14177;51.520;6.764;2023-11-22T08:37:58;102867.34;;;2.43
69785;BMP280;14177;51.520;6.764;2023-11-22T08:40:25;102876.19;;;2.51
69785;BMP280;14177;51.520;6.764;2023-11-22T08:42:53;102895.38;;;2.62
69785;BMP280;14177;51.520;6.764;2023-11-22T08:45:20;102904.22;;;2.70
69785;BMP280;14177;51.520;6.764;2023-11-22T08:47:47;102910.38;;;2.75
69785;BMP280;14177;51.520;6.764;2023-11-22T08:50:16;102910.63;;;2.82
69785;BMP280;14177;51.520;6.764;2023-11-22T08:52:44;102908.22;;;2.87
69785;BMP280;14177;51.520;6.764;2023-11-22T08:55:12;102916.94;;;2.92
69785;BMP280;14177;51.520;6.764;2023-11-22T08:57:41;102908.69;;;3.00
69785;BMP280;14177;51.520;6.764;2023-11-22T09:00:08;102897.00;;;3.10
69785;BMP280;14177;51.520;6.764;2023-11-22T09:02:37;102888.75;;;3.20
69785;BMP280;14177;51.520;6.764;2023-11-22T09:05:07;102882.53;;;3.95
69785;BMP280;14177;51.520;6.764;2023-11-22T09:07:39;102872.50;;;5.37
69785;BMP280;14177;51.520;6.764;2023-11-22T09:10:07;102866.56;;;6.66
69785;BMP280;14177;51.520;6.764;2023-11-22T09:12:39;102851.25;;;7.94
69785;BMP280;14177;51.520;6.764;2023-11-22T09:15:09;102855.66;;;8.82
69785;BMP280;14177;51.520;6.764;2023-11-22T09:17:41;102849.91;;;9.24
69785;BMP280;14177;51.520;6.764;2023-11-22T09:20:14;102845.72;;;9.39
69785;BMP280;14177;51.520;6.764;2023-11-22T09:22:51;102852.72;;;9.54
69785;BMP280;14177;51.520;6.764;2023-11-22T09:25:24;102869.97;;;9.47
69785;BMP280;14177;51.520;6.764;2023-11-22T09:27:53;102858.59;;;9.29
69785;BMP280;14177;51.520;6.764;2023-11-22T09:30:31;102853.31;;;9.17
69785;BMP280;14177;51.520;6.764;2023-11-22T09:33:05;102852.31;;;8.95
69785;BMP280;14177;51.520;6.764;2023-11-22T09:35:33;102858.31;;;8.87
69785;BMP280;14177;51.520;6.764;2023-11-22T09:38:07;102857.25;;;8.65
69785;BMP280;14177;51.520;6.764;2023-11-22T09:40:47;102863.88;;;8.40
69785;BMP280;14177;51.520;6.764;2023-11-22T09:43:18;102862.63;;;8.08
69785;BMP280;14177;51.520;6.764;2023-11-22T09:45:50;102870.88;;;7.77
69785;BMP280;14177;51.520;6.764;2023-11-22T09:48:24;102857.72;;;7.62
69785;BMP280;14177;51.520;6.764;2023-11-22T09:51:21;102853.41;;;7.59
69785;BMP280;14177;51.520;6.764;2023-11-22T09:53:58;102867.19;;;7.60
69785;BMP280;14177;51.520;6.764;2023-11-22T09:56:31;102853.41;;;7.61
69785;BMP280;14177;51.520;6.764;2023-11-22T09:59:03;102855.91;;;7.55
69785;BMP280;14177;51.520;6.764;2023-11-22T10:01:30;102867.91;;;7.50
69785;BMP280;14177;51.520;6.764;2023-11-22T10:03:59;102871.31;;;7.46
69785;BMP280;14177;51.520;6.764;2023-11-22T10:06:26;102873.84;;;7.41
69785;BMP280;14177;51.520;6.764;2023-11-22T10:08:57;102867.72;;;7.36
69785;BMP280;14177;51.520;6.764;2023-11-22T10:11:24;102866.03;;;7.40
69785;BMP280;14177;51.520;6.764;2023-11-22T10:13:51;102862.66;;;7.44
69785;BMP280;14177;51.520;6.764;2023-11-22T10:16:19;102865.28;;;7.47
69785;BMP280;14177;51.520;6.764;2023-11-22T10:18:48;102862.78;;;7.53
69785;BMP280;14177;51.520;6.764;2023-11-22T10:21:28;102864.59;;;7.60
69785;BMP280;14177;51.520;6.764;2023-11-22T10:24:01;102861.28;;;7.70
69785;BMP280;14177;51.520;6.764;2023-11-22T10:26:30;102864.84;;;7.78
69785;BMP280;14177;51.520;6.764;2023-11-22T10:28:58;102866.63;;;7.82
69785;BMP280;14177;51.520;6.764;2023-11-22T10:31:25;102864.13;;;7.89
69785;BMP280;14177;51.520;6.764;2023-11-22T10:33:54;102865.94;;;7.95
69785;BMP280;14177;51.520;6.764;2023-11-22T10:36:24;102868.63;;;8.01
69785;BMP280;14177;51.520;6.764;2023-11-22T10:38:51;102867.78;;;8.06
69785;BMP280;14177;51.520;6.764;2023-11-22T10:41:20;102863.50;;;8.10
69785;BMP280;14177;51.520;6.764;2023-11-22T10:43:52;102863.50;;;8.10
69785;BMP280;14177;51.520;6.764;2023-11-22T10:46:28;102856.78;;;8.21
69785;BMP280;14177;51.520;6.764;2023-11-22T10:48:57;102845.69;;;8.32
69785;BMP280;14177;51.520;6.764;2023-11-22T10:51:31;102856.19;;;8.47
69785;BMP280;14177;51.520;6.764;2023-11-22T10:54:01;102854.63;;;8.64
69785;BMP280;14177;51.520;6.764;2023-11-22T10:56:39;102852.22;;;8.86
69785;BMP280;14177;51.520;6.764;2023-11-22T10:59:13;102843.75;;;9.05
69785;BMP280;14177;51.520;6.764;2023-11-22T11:01:47;102827.25;;;8.97
69785;BMP280;14177;51.520;6.764;2023-11-22T11:04:24;102830.59;;;8.84
69785;BMP280;14177;51.520;6.764;2023-11-22T11:06:54;102825.41;;;8.81
69785;BMP280;14177;51.520;6.764;2023-11-22T11:09:23;102822.84;;;8.86
69785;BMP280;14177;51.520;6.764;2023-11-22T11:11:57;102826.31;;;8.86
69785;BMP280;14177;51.520;6.764;2023-11-22T11:14:25;102818.44;;;8.77
69785;BMP280;14177;51.520;6.764;2023-11-22T11:16:54;102822.72;;;8.69
69785;BMP280;14177;51.520;6.764;2023-11-22T11:19:23;102814.91;;;8.63
69785;BMP280;14177;51.520;6.764;2023-11-22T11:21:51;102812.38;;;8.69
69785;BMP280;14177;51.520;6.764;2023-11-22T11:24:18;102813.19;;;8.65
69785;BMP280;14177;51.520;6.764;2023-11-22T11:26:49;102810.44;;;8.47
69785;BMP280;14177;51.520;6.764;2023-11-22T11:29:36;102818.81;;;8.23
69785;BMP280;14177;51.520;6.764;2023-11-22T11:32:12;102822.22;;;8.17
69785;BMP280;14177;51.520;6.764;2023-11-22T11:34:49;102823.97;;;8.20
69785;BMP280;14177;51.520;6.764;2023-11-22T11:37:19;102839.69;;;8.38
69785;BMP280;14177;51.520;6.764;2023-11-22T11:39:47;102827.88;;;8.66
69785;BMP280;14177;51.520;6.764;2023-11-22T11:42:14;102829.91;;;9.02
69785;BMP280;14177;51.520;6.764;2023-11-22T11:47:27;102816.47;;;9.76
69785;BMP280;14177;51.520;6.764;2023-11-22T11:49:55;102821.81;;;10.03
69785;BMP280;14177;51.520;6.764;2023-11-22T11:52:25;102815.75;;;10.05
69785;BMP280;14177;51.520;6.764;2023-11-22T11:54:52;102792.31;;;9.95
69785;BMP280;14177;51.520;6.764;2023-11-22T11:57:19;102772.34;;;9.73
69785;BMP280;14177;51.520;6.764;2023-11-22T11:59:47;102752.34;;;9.42
69785;BMP280;14177;51.520;6.764;2023-11-22T12:02:16;102744.44;;;9.21
69785;BMP280;14177;51.520;6.764;2023-11-22T12:04:43;102733.16;;;9.13
69785;BMP280;14177;51.520;6.764;2023-11-22T12:07:12;102719.34;;;9.17
69785;BMP280;14177;51.520;6.764;2023-11-22T12:09:39;102706.31;;;9.05
69785;BMP280;14177;51.520;6.764;2023-11-22T12:12:07;102706.28;;;8.99
69785;BMP280;14177;51.520;6.764;2023-11-22T12:14:34;102695.97;;;9.10
69785;BMP280;14177;51.520;6.764;2023-11-22T12:17:03;102688.34;;;9.52
69785;BMP280;14177;51.520;6.764;2023-11-22T12:19:30;102685.91;;;10.13
69785;BMP280;14177;51.520;6.764;2023-11-22T12:21:58;102669.28;;;11.06
69785;BMP280;14177;51.520;6.764;2023-11-22T12:24:25;102662.91;;;11.73
69785;BMP280;14177;51.520;6.764;2023-11-22T12:26:53;102671.19;;;12.27
69785;BMP280;14177;51.520;6.764;2023-11-22T12:29:23;102667.38;;;12.60
69785;BMP280;14177;51.520;6.764;2023-11-22T12:31:51;102678.41;;;12.92
69785;BMP280;14177;51.520;6.764;2023-11-22T12:34:22;102670.25;;;13.17
69785;BMP280;14177;51.520;6.764;2023-11-22T12:36:52;102658.28;;;13.01
69785;BMP280;14177;51.520;6.764;2023-11-22T12:39:20;102657.50;;;12.93
69785;BMP280;14177;51.520;6.764;2023-11-22T12:41:50;102659.09;;;13.08
69785;BMP280;14177;51.520;6.764;2023-11-22T12:44:43;102664.84;;;13.32
69785;BMP280;14177;51.520;6.764;2023-11-22T12:47:13;102652.50;;;13.46
69785;BMP280;14177;51.520;6.764;2023-11-22T12:49:45;102658.63;;;13.42
69785;BMP280;14177;51.520;6.764;2023-11-22T12:52:16;102656.03;;;12.67
69785;BMP280;14177;51.520;6.764;2023-11-22T12:54:43;102671.09;;;12.38
69785;BMP280;14177;51.520;6.764;2023-11-22T12:57:14;102682.66;;;12.04
69785;BMP280;14177;51.520;6.764;2023-11-22T12:59:45;102676.47;;;12.18
69785;BMP280;14177;51.520;6.764;2023-11-22T13:02:12;102671.28;;;12.17
69785;BMP280;14177;51.520;6.764;2023-11-22T13:04:39;102664.22;;;12.26
69785;BMP280;14177;51.520;6.764;2023-11-22T13:07:06;102659.06;;;12.22
69785;BMP280;14177;51.520;6.764;2023-11-22T13:09:33;102643.38;;;12.26
69785;BMP280;14177;51.520;6.764;2023-11-22T13:12:02;102644.50;;;12.84
69785;BMP280;14177;51.520;6.764;2023-11-22T13:14:30;102645.38;;;12.88
69785;BMP280;14177;51.520;6.764;2023-11-22T13:17:04;102647.84;;;13.01
69785;BMP280;14177;51.520;6.764;2023-11-22T13:19:35;102668.84;;;12.86
69785;BMP280;14177;51.520;6.764;2023-11-22T13:22:02;102668.09;;;12.77
69785;BMP280;14177;51.520;6.764;2023-11-22T13:24:29;102651.16;;;12.34
69785;BMP280;14177;51.520;6.764;2023-11-22T13:26:56;102662.00;;;11.79
69785;BMP280;14177;51.520;6.764;2023-11-22T13:29:23;102661.41;;;11.21
69785;BMP280;14177;51.520;6.764;2023-11-22T13:31:50;102664.19;;;10.74
69785;BMP280;14177;51.520;6.764;2023-11-22T13:34:18;102667.69;;;10.40
69785;BMP280;14177;51.520;6.764;2023-11-22T13:36:45;102663.38;;;10.16
69785;BMP280;14177;51.520;6.764;2023-11-22T13:39:12;102660.78;;;10.01
69785;BMP280;14177;51.520;6.764;2023-11-22T13:41:41;102655.53;;;9.79
69785;BMP280;14177;51.520;6.764;2023-11-22T13:44:08;102658.06;;;9.51
69785;BMP280;14177;51.520;6.764;2023-11-22T13:46:37;102657.13;;;9.23
69785;BMP280;14177;51.520;6.764;2023-11-22T13:49:04;102650.09;;;9.01
69785;BMP280;14177;51.520;6.764;2023-11-22T13:51:33;102650.91;;;8.84
69785;BMP280;14177;51.520;6.764;2023-11-22T13:54:01;102641.34;;;8.72
69785;BMP280;14177;51.520;6.764;2023-11-22T13:56:28;102645.59;;;8.66
69785;BMP280;14177;51.520;6.764;2023-11-22T13:58:55;102626.53;;;8.50
69785;BMP280;14177;51.520;6.764;2023-11-22T14:01:22;102635.91;;;8.37
69785;BMP280;14177;51.520;6.764;2023-11-22T14:03:49;102631.53;;;8.27
69785;BMP280;14177;51.520;6.764;2023-11-22T14:06:16;102629.75;;;8.20
69785;BMP280;14177;51.520;6.764;2023-11-22T14:08:44;102624.56;;;8.18
69785;BMP280;14177;51.520;6.764;2023-11-22T14:11:12;102621.03;;;8.13
69785;BMP280;14177;51.520;6.764;2023-11-22T14:13:39;102631.31;;;8.06
69785;BMP280;14177;51.520;6.764;2023-11-22T14:16:07;102624.34;;;7.93
69785;BMP280;14177;51.520;6.764;2023-11-22T14:18:35;102637.19;;;7.84